Eden, South Dakota
Current Conditions -  °F | °C
As of 8:35 AM on Tuesday 27 Jan 2015 (Local Time) from KGWR Reporting Station
Overcast Overcast  
Wind Chill: 22°   Ceiling: 100
Heat Index: 30°   Visibility: 0mi
Dew Point: 30°   Wind: 9mph
Humidity: 100%   Direction: 140°SE
Pressure: 30.05"   Gusts: NA
Location:  45.62°N, 97.42°W
Report Text: KGWR 271435Z AUTO 14008KT M1/4SM OVC001 M01/M01 A3005 RMK A01 P000
Loading
Personal Weather Stations






























Interactive Weather Map New forecast layout! Learn more

10-Day Weather Forecast

Advertisements
Track Severe Weather on mobile